createdAt,value
2019-01-02T00:02:23.003Z,1.77
2019-01-02T00:04:51.400Z,1.70
2019-01-02T00:07:20.174Z,1.73
2019-01-02T00:09:48.584Z,2.00
2019-01-02T00:12:17.370Z,2.37
2019-01-02T00:14:45.931Z,2.30
2019-01-02T00:17:14.445Z,2.47
2019-01-02T00:19:42.874Z,2.10
2019-01-02T00:22:11.256Z,2.10
2019-01-02T00:24:39.670Z,1.80
2019-01-02T00:27:08.071Z,1.80
2019-01-02T00:29:36.770Z,2.10
2019-01-02T00:32:05.153Z,1.93
2019-01-02T00:34:33.984Z,2.03
2019-01-02T00:37:02.374Z,2.10
2019-01-02T00:39:31.099Z,2.53
2019-01-02T00:41:59.576Z,1.93
2019-01-02T00:44:28.320Z,1.97
2019-01-02T00:46:56.683Z,2.27
2019-01-02T00:49:25.131Z,2.70
2019-01-02T00:51:53.514Z,2.63
2019-01-02T00:54:21.902Z,2.40
2019-01-02T00:56:50.312Z,2.43
2019-01-02T00:59:18.998Z,2.33
2019-01-02T01:01:47.398Z,2.60
2019-01-02T01:04:16.185Z,2.63
2019-01-02T01:06:44.614Z,2.53
2019-01-02T01:09:13.510Z,2.90
2019-01-02T01:11:41.907Z,2.40
2019-01-02T01:14:10.598Z,2.60
2019-01-02T01:16:39.014Z,2.23
2019-01-02T01:19:07.824Z,2.50
2019-01-02T01:21:36.236Z,2.77
2019-01-02T01:24:04.902Z,2.47
2019-01-02T01:26:33.343Z,2.50
2019-01-02T01:29:01.718Z,2.60
2019-01-02T01:31:30.442Z,2.70
2019-01-02T01:33:58.842Z,3.07
2019-01-02T01:36:27.645Z,2.83
2019-01-02T01:38:56.040Z,2.90
2019-01-02T01:41:24.458Z,2.87
2019-01-02T01:43:53.140Z,2.57
2019-01-02T01:46:21.610Z,2.40
2019-01-02T01:48:50.410Z,2.40
2019-01-02T01:51:18.828Z,2.70
2019-01-02T01:53:47.200Z,2.97
2019-01-02T01:56:15.826Z,2.37
2019-01-02T01:58:44.222Z,2.53
2019-01-02T02:01:12.634Z,2.67
2019-01-02T02:03:40.999Z,3.07
2019-01-02T02:06:09.420Z,2.90
2019-01-02T02:08:38.216Z,2.70
2019-01-02T02:11:06.645Z,3.50
2019-01-02T02:13:35.028Z,2.50
2019-01-02T02:16:03.707Z,3.40
2019-01-02T02:18:32.116Z,3.53
2019-01-02T02:21:00.995Z,2.70
2019-01-02T02:23:29.430Z,3.30
2019-01-02T02:25:57.810Z,2.83
2019-01-02T02:28:26.550Z,2.90
2019-01-02T02:30:54.930Z,3.07
2019-01-02T02:33:23.826Z,2.83
2019-01-02T02:35:52.410Z,2.60
2019-01-02T02:38:21.222Z,2.67
2019-01-02T02:40:50.009Z,2.90
2019-01-02T02:43:18.450Z,2.93
2019-01-02T02:45:46.806Z,2.93
2019-01-02T02:48:15.628Z,2.97
2019-01-02T02:50:44.226Z,3.07
2019-01-02T02:53:12.951Z,3.00
2019-01-02T02:55:41.747Z,3.17
2019-01-02T02:58:10.459Z,2.63
2019-01-02T03:00:39.175Z,2.70
2019-01-02T03:03:07.888Z,3.13
2019-01-02T03:05:36.284Z,3.37
2019-01-02T03:08:04.693Z,3.00
2019-01-02T03:10:33.479Z,3.37
2019-01-02T03:13:02.293Z,3.17
2019-01-02T03:15:30.966Z,2.77
2019-01-02T03:17:59.379Z,2.83
2019-01-02T03:20:27.753Z,3.30
2019-01-02T03:22:56.163Z,3.23
2019-01-02T03:25:24.951Z,3.50
2019-01-02T03:27:53.755Z,3.30
2019-01-02T03:30:22.615Z,3.03
2019-01-02T03:32:51.316Z,3.07
2019-01-02T03:35:20.110Z,3.17
2019-01-02T03:38:07.950Z,2.70
2019-01-02T03:40:36.330Z,2.87
2019-01-02T03:43:04.732Z,2.97
2019-01-02T03:45:33.140Z,3.03
2019-01-02T03:48:01.552Z,2.90
2019-01-02T03:50:29.938Z,3.10
2019-01-02T03:52:58.341Z,3.53
2019-01-02T03:55:26.711Z,3.17
2019-01-02T03:57:55.121Z,3.23
2019-01-02T04:00:23.500Z,3.13
2019-01-02T04:02:51.883Z,2.77
2019-01-02T04:05:22.552Z,3.07
2019-01-02T04:07:56.979Z,3.40
2019-01-02T04:10:25.404Z,3.57
2019-01-02T04:12:53.801Z,3.30
2019-01-02T04:15:22.210Z,3.40
2019-01-02T04:17:50.522Z,3.80
2019-01-02T04:20:18.947Z,3.23
2019-01-02T04:22:47.325Z,3.47
2019-01-02T04:25:15.748Z,3.50
2019-01-02T04:27:44.120Z,2.80
2019-01-02T04:30:14.582Z,3.47
2019-01-02T04:32:42.981Z,3.37
2019-01-02T04:35:11.408Z,2.90
2019-01-02T04:37:39.791Z,3.40
2019-01-02T04:40:12.829Z,3.10
2019-01-02T04:42:41.218Z,3.40
2019-01-02T04:45:10.876Z,4.03
2019-01-02T04:47:39.314Z,3.47
2019-01-02T04:50:10.379Z,3.77
2019-01-02T04:52:38.781Z,2.87
2019-01-02T04:55:07.214Z,2.93
2019-01-02T04:57:35.606Z,2.87
2019-01-02T05:00:07.275Z,2.70
2019-01-02T05:02:35.657Z,2.97
2019-01-02T05:05:04.659Z,3.17
2019-01-02T05:07:33.057Z,3.23
2019-01-02T05:10:01.467Z,3.00
2019-01-02T05:12:29.889Z,2.83
2019-01-02T05:14:58.311Z,3.30
2019-01-02T05:17:26.694Z,3.10
2019-01-02T05:19:55.107Z,2.60
2019-01-02T05:22:23.520Z,3.00
2019-01-02T05:24:51.903Z,3.27
2019-01-02T05:27:20.345Z,2.67
2019-01-02T05:29:48.725Z,3.40
2019-01-02T05:32:17.140Z,2.73
2019-01-02T05:34:45.584Z,2.83
2019-01-02T05:37:14.026Z,3.10
2019-01-02T05:39:42.625Z,3.07
2019-01-02T05:42:11.283Z,2.40
2019-01-02T05:44:39.883Z,3.17
2019-01-02T05:47:08.566Z,2.97
2019-01-02T05:49:37.227Z,2.50
2019-01-02T05:52:05.725Z,3.07
2019-01-02T05:54:34.113Z,3.07
2019-01-02T05:57:02.533Z,2.70
2019-01-02T05:59:50.385Z,2.87
2019-01-02T06:02:18.837Z,2.57
2019-01-02T06:04:47.379Z,2.90
2019-01-02T06:07:15.849Z,2.90
2019-01-02T06:09:44.336Z,3.37
2019-01-02T06:12:12.870Z,2.93
2019-01-02T06:14:41.263Z,3.07
2019-01-02T06:17:09.713Z,2.67
2019-01-02T06:19:38.110Z,2.60
2019-01-02T06:22:06.547Z,2.50
2019-01-02T06:24:34.963Z,2.17
2019-01-02T06:27:03.419Z,2.50
2019-01-02T06:29:31.959Z,2.43
2019-01-02T06:32:02.064Z,2.60
2019-01-02T06:34:30.571Z,2.40
2019-01-02T06:36:59.074Z,2.90
2019-01-02T06:39:27.380Z,1.83
2019-01-02T06:41:55.816Z,1.80
2019-01-02T06:44:24.188Z,1.93
2019-01-02T06:46:52.615Z,1.90
2019-01-02T06:49:21.067Z,1.87
2019-01-02T06:51:49.522Z,1.57
2019-01-02T06:54:17.887Z,1.80
2019-01-02T06:56:46.312Z,2.03
2019-01-02T06:59:14.746Z,1.87
2019-01-02T07:01:43.194Z,2.27
2019-01-02T07:04:11.710Z,2.30
2019-01-02T07:06:40.111Z,2.00
2019-01-02T07:09:09.042Z,1.90
2019-01-02T07:11:37.446Z,2.90
2019-01-02T07:14:05.842Z,2.23
2019-01-02T07:16:34.310Z,2.33
2019-01-02T07:19:02.763Z,1.90
2019-01-02T07:21:31.271Z,1.87
2019-01-02T07:23:59.580Z,2.83
2019-01-02T07:26:27.968Z,2.00
2019-01-02T07:28:56.561Z,1.83
2019-01-02T07:31:24.975Z,2.00
2019-01-02T07:33:59.768Z,2.30
2019-01-02T07:36:58.495Z,2.90
2019-01-02T07:39:38.842Z,2.70
2019-01-02T07:42:37.333Z,2.77
2019-01-02T07:45:37.784Z,2.83
2019-01-02T07:48:25.625Z,2.53
2019-01-02T07:51:29.333Z,2.67
2019-01-02T07:54:13.031Z,2.47
2019-01-02T07:57:05.476Z,2.10
2019-01-02T07:59:57.839Z,2.30
2019-01-02T08:02:41.825Z,2.93
2019-01-02T08:05:19.400Z,2.53
2019-01-02T08:08:06.055Z,2.50
2019-01-02T08:11:05.107Z,2.10
2019-01-02T08:13:45.710Z,1.83
2019-01-02T08:16:40.462Z,3.20
2019-01-02T08:19:45.514Z,2.57
2019-01-02T08:22:33.782Z,2.67
2019-01-02T08:25:08.467Z,2.37
2019-01-02T08:27:43.226Z,2.87
2019-01-02T08:30:30.026Z,2.37
2019-01-02T08:33:04.772Z,2.30
2019-01-02T08:36:30.642Z,2.47
2019-01-02T08:39:27.841Z,2.03
2019-01-02T08:42:13.871Z,2.60
2019-01-02T08:44:45.707Z,2.23
2019-01-02T08:47:46.298Z,2.00
2019-01-02T08:50:46.822Z,1.90
2019-01-02T08:53:36.365Z,1.90
2019-01-02T08:56:11.493Z,2.20
2019-01-02T08:58:43.326Z,1.90
2019-01-02T09:01:20.762Z,2.60
2019-01-02T09:04:24.214Z,2.27
2019-01-02T09:07:04.583Z,1.43
2019-01-02T09:09:59.800Z,2.07
2019-01-02T09:12:51.112Z,1.67
2019-01-02T09:15:45.334Z,1.50
2019-01-02T09:18:38.028Z,1.23
2019-01-02T09:21:12.546Z,1.40
2019-01-02T09:23:50.028Z,1.30
2019-01-02T09:26:44.148Z,1.70
2019-01-02T09:29:22.593Z,1.80
2019-01-02T09:31:59.922Z,1.30
2019-01-02T09:34:37.427Z,1.37
2019-01-02T09:37:34.743Z,1.70
2019-01-02T09:40:33.766Z,1.53
2019-01-02T09:43:17.334Z,2.10
2019-01-02T09:46:10.386Z,1.60
2019-01-02T09:48:57.226Z,1.50
2019-01-02T09:51:45.750Z,1.67
2019-01-02T09:54:36.926Z,2.10
2019-01-02T09:57:34.372Z,1.67
2019-01-02T10:00:18.077Z,1.57
2019-01-02T10:03:12.352Z,1.57
2019-01-02T10:06:03.435Z,2.03
2019-01-02T10:08:37.978Z,2.00
2019-01-02T10:11:15.484Z,1.20
2019-01-02T10:14:11.429Z,1.00
2019-01-02T10:16:57.988Z,2.10
2019-01-02T10:19:59.462Z,1.53
2019-01-02T10:22:36.327Z,1.43
2019-01-02T10:25:13.448Z,1.40
2019-01-02T10:27:55.198Z,1.23
2019-01-02T10:30:55.885Z,1.40
2019-01-02T10:33:30.582Z,1.20
2019-01-02T10:36:20.079Z,1.50
2019-01-02T10:39:07.203Z,1.40
2019-01-02T10:42:02.470Z,1.50
2019-01-02T10:44:38.361Z,1.40
2019-01-02T10:47:38.133Z,1.63
2019-01-02T10:50:21.778Z,1.30
2019-01-02T10:52:55.505Z,1.30
2019-01-02T10:55:46.917Z,1.67
2019-01-02T10:58:36.439Z,2.40
2019-01-02T11:01:17.658Z,1.90
2019-01-02T11:04:19.147Z,1.60
2019-01-02T11:06:50.834Z,1.80
2019-01-02T11:09:53.052Z,1.83
2019-01-02T11:12:27.310Z,2.37
2019-01-02T11:15:15.691Z,1.50
2019-01-02T11:17:50.336Z,1.80
2019-01-02T11:20:38.500Z,1.57
2019-01-02T11:23:16.033Z,1.50
2019-01-02T11:25:50.523Z,1.23
2019-01-02T11:28:45.789Z,0.97
2019-01-02T11:31:47.730Z,0.90
2019-01-02T11:34:34.501Z,0.63
2019-01-02T11:37:24.029Z,0.40
2019-01-02T11:40:29.361Z,0.63
2019-01-02T11:43:33.019Z,0.83
2019-01-02T11:46:20.861Z,0.60
2019-01-02T11:48:49.296Z,0.60
2019-01-02T11:51:17.746Z,0.63
2019-01-02T11:53:46.222Z,0.80
2019-01-02T11:56:14.639Z,0.70
2019-01-02T11:58:49.808Z,0.90
2019-01-02T12:01:15.096Z,0.60
2019-01-02T12:03:43.559Z,1.17
2019-01-02T12:06:12.109Z,0.97
2019-01-02T12:08:40.631Z,1.10
2019-01-02T12:11:09.280Z,0.70
2019-01-02T12:13:37.679Z,0.60
2019-01-02T12:16:06.098Z,0.70
2019-01-02T12:18:34.855Z,0.67
2019-01-02T12:21:03.408Z,0.67
2019-01-02T12:23:31.783Z,0.77
2019-01-02T12:26:00.375Z,1.00
2019-01-02T12:28:28.747Z,0.60
2019-01-02T12:30:57.593Z,1.00
2019-01-02T12:33:27.759Z,1.00
2019-01-02T12:35:56.221Z,1.13
2019-01-02T12:38:27.110Z,1.07
2019-01-02T12:40:56.155Z,1.23
2019-01-02T12:43:24.533Z,1.33
2019-01-02T12:45:54.723Z,0.77
2019-01-02T12:48:23.129Z,0.97
2019-01-02T12:50:51.609Z,1.03
2019-01-02T12:53:19.990Z,1.00
2019-01-02T12:55:48.454Z,1.00
2019-01-02T12:58:17.093Z,0.93
2019-01-02T13:00:49.663Z,1.10
2019-01-02T13:03:42.317Z,1.20
2019-01-02T13:06:31.025Z,0.90
2019-01-02T13:09:24.070Z,1.10
2019-01-02T13:12:10.734Z,0.90
2019-01-02T13:14:51.286Z,1.10
2019-01-02T13:17:42.147Z,1.00
2019-01-02T13:20:16.773Z,1.47
2019-01-02T13:22:48.434Z,1.30
2019-01-02T13:25:25.929Z,1.53
2019-01-02T13:27:57.738Z,1.50
2019-01-02T13:30:38.223Z,1.70
2019-01-02T13:33:15.681Z,1.53
2019-01-02T13:36:14.903Z,1.20
2019-01-02T13:38:46.704Z,1.50
2019-01-02T13:41:36.373Z,1.60
2019-01-02T13:44:17.256Z,1.60
2019-01-02T13:47:05.360Z,1.50
2019-01-02T13:49:46.424Z,1.90
2019-01-02T13:52:14.796Z,1.27
2019-01-02T13:54:43.497Z,1.67
2019-01-02T13:57:11.847Z,1.00
2019-01-02T13:59:40.507Z,0.93
2019-01-02T14:02:10.027Z,1.43
2019-01-02T14:04:41.345Z,0.80
2019-01-02T14:07:08.920Z,0.97
2019-01-02T14:09:39.075Z,1.10
2019-01-02T14:12:07.572Z,0.87
2019-01-02T14:14:55.401Z,1.10
2019-01-02T14:17:23.885Z,1.00
2019-01-02T14:19:52.264Z,1.30
2019-01-02T14:22:20.803Z,1.43
2019-01-02T14:24:49.356Z,1.13
2019-01-02T14:27:17.865Z,1.33
2019-01-02T14:29:46.479Z,1.20
2019-01-02T14:32:15.057Z,1.67
2019-01-02T14:34:43.727Z,1.90
2019-01-02T14:37:12.322Z,2.20
2019-01-02T14:39:40.755Z,2.33
2019-01-02T14:42:09.437Z,1.90
2019-01-02T14:44:37.741Z,1.93
2019-01-02T14:47:06.145Z,1.83
2019-01-02T14:49:36.617Z,2.33
2019-01-02T14:52:04.754Z,4.30
2019-01-02T14:54:33.115Z,3.57
2019-01-02T14:57:03.151Z,2.63
2019-01-02T14:59:31.680Z,2.73
2019-01-02T15:02:01.939Z,2.30
2019-01-02T15:04:30.309Z,2.17
2019-01-02T15:06:58.876Z,2.90
2019-01-02T15:09:27.351Z,2.83
2019-01-02T15:11:59.381Z,2.60
2019-01-02T15:14:28.861Z,2.90
2019-01-02T15:16:57.303Z,2.40
2019-01-02T15:19:25.673Z,2.97
2019-01-02T15:21:55.983Z,2.80
2019-01-02T15:24:24.561Z,3.13
2019-01-02T15:26:54.673Z,3.00
2019-01-02T15:29:23.255Z,3.77
2019-01-02T15:31:51.857Z,3.00
2019-01-02T15:34:20.219Z,4.03
2019-01-02T15:36:48.753Z,3.80
2019-01-02T15:39:19.878Z,3.90
2019-01-02T15:41:48.356Z,3.17
2019-01-02T15:44:16.828Z,3.33
2019-01-02T15:46:45.219Z,2.93
2019-01-02T15:49:13.753Z,3.10
2019-01-02T15:51:42.224Z,2.90
2019-01-02T15:54:10.665Z,2.97
2019-01-02T15:56:39.109Z,2.80
2019-01-02T15:59:26.999Z,2.43
2019-01-02T16:01:58.113Z,2.40
2019-01-02T16:04:26.521Z,2.70
2019-01-02T16:06:54.934Z,2.17
2019-01-02T16:09:23.393Z,2.20
2019-01-02T16:11:51.797Z,2.03
2019-01-02T16:14:20.195Z,2.03
2019-01-02T16:16:48.573Z,1.70
2019-01-02T16:19:17.065Z,1.77
2019-01-02T16:21:45.513Z,1.90
2019-01-02T16:24:14.011Z,1.93
2019-01-02T16:26:42.391Z,5.70
2019-01-02T16:29:10.937Z,3.43
2019-01-02T16:31:39.423Z,2.20
2019-01-02T16:34:08.051Z,1.93
2019-01-02T16:36:36.429Z,1.50
2019-01-02T16:39:07.310Z,2.17
2019-01-02T16:41:38.692Z,1.30
2019-01-02T16:44:07.096Z,1.30
2019-01-02T16:46:35.486Z,1.73
2019-01-02T16:49:03.913Z,1.30
2019-01-02T16:51:32.293Z,1.53
2019-01-02T16:54:00.799Z,1.67
2019-01-02T16:56:29.167Z,1.90
2019-01-02T16:58:57.583Z,2.83
2019-01-02T17:01:26.036Z,3.97
2019-01-02T17:03:56.198Z,3.43
2019-01-02T17:06:24.540Z,3.40
2019-01-02T17:08:52.979Z,2.80
2019-01-02T17:11:21.329Z,2.13
2019-01-02T17:13:49.723Z,1.83
2019-01-02T17:16:18.161Z,2.00
2019-01-02T17:18:46.583Z,1.70
2019-01-02T17:21:14.971Z,1.10
2019-01-02T17:23:43.837Z,1.30
2019-01-02T17:26:12.342Z,1.40
2019-01-02T17:28:40.725Z,1.20
2019-01-02T17:31:09.151Z,1.20
2019-01-02T17:33:37.524Z,1.60
2019-01-02T17:36:05.939Z,1.07
2019-01-02T17:38:34.351Z,1.10
2019-01-02T17:41:02.761Z,1.30
2019-01-02T17:43:31.212Z,1.30
2019-01-02T17:45:59.612Z,0.90
2019-01-02T17:48:28.043Z,1.50
2019-01-02T17:50:56.467Z,1.30
2019-01-02T17:53:24.843Z,1.33
2019-01-02T17:55:53.319Z,2.30
2019-01-02T17:58:21.763Z,1.90
2019-01-02T18:00:50.185Z,1.93
2019-01-02T18:03:18.566Z,3.00
2019-01-02T18:05:47.066Z,2.30
2019-01-02T18:08:15.468Z,3.20
2019-01-02T18:10:43.922Z,2.40
2019-01-02T18:13:12.300Z,2.00
2019-01-02T18:15:40.896Z,2.20
2019-01-02T18:18:09.291Z,3.83
2019-01-02T18:20:37.914Z,3.70
2019-01-02T18:23:06.288Z,3.17
2019-01-02T18:25:34.702Z,3.00
2019-01-02T18:28:03.086Z,3.40
2019-01-02T18:30:31.517Z,2.10
2019-01-02T18:32:59.929Z,1.80
2019-01-02T18:35:28.330Z,1.80
2019-01-02T18:37:56.716Z,2.17
2019-01-02T18:40:25.142Z,1.60
2019-01-02T18:42:53.540Z,1.77
2019-01-02T18:45:21.974Z,1.43
2019-01-02T18:47:50.342Z,2.00
2019-01-02T18:50:18.734Z,1.67
2019-01-02T18:52:47.166Z,2.47
2019-01-02T18:55:15.540Z,3.20
2019-01-02T18:57:44.012Z,2.10
2019-01-02T19:00:12.531Z,1.90
2019-01-02T19:02:40.961Z,1.40
2019-01-02T19:05:09.330Z,1.63
2019-01-02T19:07:37.766Z,2.00
2019-01-02T19:10:06.498Z,1.93
2019-01-02T19:12:34.958Z,1.87
2019-01-02T19:15:03.590Z,2.20
2019-01-02T19:17:33.384Z,2.30
2019-01-02T19:20:01.787Z,1.80
2019-01-02T19:22:30.231Z,1.60
2019-01-02T19:24:58.639Z,1.70
2019-01-02T19:27:27.175Z,1.77
2019-01-02T19:29:55.581Z,1.80
2019-01-02T19:32:24.014Z,2.03
2019-01-02T19:34:52.403Z,2.13
2019-01-02T19:37:20.838Z,1.67
2019-01-02T19:39:49.241Z,1.50
2019-01-02T19:42:17.663Z,1.60
2019-01-02T19:44:46.062Z,1.83
2019-01-02T19:47:14.574Z,3.83
2019-01-02T19:49:43.053Z,2.93
2019-01-02T19:52:11.471Z,2.90
2019-01-02T19:54:39.876Z,2.60
2019-01-02T19:57:08.268Z,3.20
2019-01-02T19:59:36.749Z,3.87
2019-01-02T20:02:05.171Z,2.53
2019-01-02T20:04:33.591Z,2.53
2019-01-02T20:07:02.012Z,2.10
2019-01-02T20:09:30.407Z,1.97
2019-01-02T20:11:58.770Z,2.63
2019-01-02T20:14:27.202Z,2.13
2019-01-02T20:16:55.771Z,2.90
2019-01-02T20:19:24.294Z,2.67
2019-01-02T20:21:52.725Z,3.70
2019-01-02T20:24:21.149Z,1.63
2019-01-02T20:26:55.260Z,1.63
2019-01-02T20:29:19.877Z,1.73
2019-01-02T20:31:48.325Z,3.37
2019-01-02T20:34:16.727Z,4.10
2019-01-02T20:36:45.257Z,3.87
2019-01-02T20:39:13.738Z,1.90
2019-01-02T20:41:42.220Z,1.90
2019-01-02T20:44:10.648Z,1.37
2019-01-02T20:46:39.047Z,1.40
2019-01-02T20:49:07.691Z,1.80
2019-01-02T20:51:36.077Z,1.80
2019-01-02T20:54:04.496Z,1.40
2019-01-02T20:56:32.883Z,1.43
2019-01-02T20:59:01.307Z,1.40
2019-01-02T21:01:29.684Z,1.20
2019-01-02T21:03:58.097Z,1.67
2019-01-02T21:06:26.496Z,1.70
2019-01-02T21:08:54.897Z,3.03
2019-01-02T21:11:23.372Z,3.00
2019-01-02T21:13:51.819Z,2.10
2019-01-02T21:16:20.259Z,2.40
2019-01-02T21:18:48.711Z,1.70
2019-01-02T21:21:17.093Z,1.80
2019-01-02T21:23:45.464Z,1.90
2019-01-02T21:26:13.867Z,1.60
2019-01-02T21:28:42.245Z,1.50
2019-01-02T21:31:10.645Z,1.30
2019-01-02T21:33:39.015Z,1.27
2019-01-02T21:36:07.447Z,1.40
2019-01-02T21:38:35.815Z,1.70
2019-01-02T21:41:04.332Z,1.90
2019-01-02T21:43:32.942Z,1.50
2019-01-02T21:46:01.341Z,2.00
2019-01-02T21:48:29.727Z,1.63
2019-01-02T21:50:58.153Z,1.40
2019-01-02T21:53:26.526Z,1.53
2019-01-02T21:55:54.940Z,2.07
2019-01-02T21:58:23.302Z,1.80
2019-01-02T22:00:51.712Z,1.67
2019-01-02T22:03:20.080Z,4.00
2019-01-02T22:05:49.197Z,3.10
2019-01-02T22:08:17.686Z,1.70
2019-01-02T22:10:48.209Z,1.47
2019-01-02T22:13:16.608Z,1.63
2019-01-02T22:15:44.988Z,2.03
2019-01-02T22:18:13.365Z,2.27
2019-01-02T22:20:41.793Z,1.97
2019-01-02T22:23:10.162Z,1.57
2019-01-02T22:25:38.559Z,1.80
2019-01-02T22:28:06.947Z,2.10
2019-01-02T22:30:35.347Z,2.20
2019-01-02T22:33:03.727Z,1.83
2019-01-02T22:35:32.154Z,1.90
2019-01-02T22:38:00.550Z,1.70
2019-01-02T22:40:28.943Z,2.00
2019-01-02T22:42:57.310Z,1.90
2019-01-02T22:45:25.758Z,2.10
2019-01-02T22:47:54.128Z,1.77
2019-01-02T22:50:22.494Z,1.37
2019-01-02T22:52:50.905Z,1.60
2019-01-02T22:55:19.270Z,1.87
2019-01-02T22:57:47.687Z,1.93
2019-01-02T23:00:17.769Z,1.17
2019-01-02T23:02:47.818Z,1.50
2019-01-02T23:05:20.659Z,1.43
2019-01-02T23:07:53.673Z,1.23
2019-01-02T23:10:29.424Z,1.70
2019-01-02T23:13:02.762Z,1.90
2019-01-02T23:15:41.563Z,3.27
2019-01-02T23:18:27.731Z,2.63
2019-01-02T23:21:07.286Z,2.10
2019-01-02T23:23:43.412Z,1.90
2019-01-02T23:26:25.667Z,2.23
2019-01-02T23:29:04.691Z,1.30
2019-01-02T23:31:34.691Z,1.60
2019-01-02T23:34:20.999Z,1.43
2019-01-02T23:36:51.027Z,1.50
2019-01-02T23:39:37.283Z,1.73
2019-01-02T23:42:25.010Z,1.60
2019-01-02T23:44:58.024Z,1.70
2019-01-02T23:47:46.142Z,1.70
2019-01-02T23:50:22.172Z,1.60
2019-01-02T23:52:54.623Z,1.63
2019-01-02T23:55:30.369Z,1.70
2019-01-02T23:58:03.319Z,1.53
